createdAt,value
2018-08-09T09:44:45.152Z,729.30
2018-08-09T09:45:47.276Z,729.23
2018-08-09T09:46:47.751Z,729.35
2018-08-09T09:47:45.780Z,729.38
2018-08-09T09:48:46.251Z,729.34
2018-08-09T09:49:46.757Z,729.33
2018-08-09T09:50:47.194Z,729.29
2018-08-09T09:51:47.706Z,729.36
2018-08-09T09:52:48.137Z,729.49
2018-08-09T09:53:48.613Z,729.34
2018-08-09T09:54:49.086Z,729.18
2018-08-09T09:55:49.548Z,729.36
2018-08-09T09:56:50.017Z,729.30
2018-08-09T09:57:50.486Z,729.25
2018-08-09T09:58:50.956Z,729.28
2018-08-09T09:59:51.428Z,729.35
2018-08-09T10:00:51.896Z,729.21
2018-08-09T10:01:52.381Z,729.26
2018-08-09T10:02:52.833Z,729.38
2018-08-09T10:03:53.305Z,729.36
2018-08-09T10:04:53.775Z,729.37
2018-08-09T10:05:54.239Z,729.32
2018-08-09T10:06:54.709Z,729.43
2018-08-09T10:07:55.180Z,729.42
2018-08-09T10:08:55.646Z,729.16
2018-08-09T10:09:56.117Z,729.28
2018-08-09T10:10:56.585Z,729.36
2018-08-09T10:11:57.054Z,729.32
2018-08-09T10:12:57.524Z,729.38
2018-08-09T10:13:57.993Z,729.36
2018-08-09T10:14:58.462Z,729.39
2018-08-09T10:15:58.932Z,729.39
2018-08-09T10:16:59.399Z,729.38
2018-08-09T10:17:59.872Z,729.29
2018-08-09T10:19:00.340Z,729.32
2018-08-09T10:20:00.810Z,729.37
2018-08-09T10:21:01.481Z,729.39
2018-08-09T10:22:01.748Z,729.40
2018-08-09T10:23:02.217Z,729.42
2018-08-09T10:24:02.686Z,729.43
2018-08-09T10:25:03.155Z,729.40
2018-08-09T10:26:03.626Z,729.38
2018-08-09T10:27:04.098Z,729.38
2018-08-09T10:28:04.565Z,729.38
2018-08-09T10:29:05.034Z,729.38
2018-08-09T10:29:34.440Z,729.33
2018-08-09T10:30:32.718Z,729.40
2018-08-09T10:31:13.461Z,729.39
2018-08-09T10:32:13.928Z,729.35
2018-08-09T10:33:14.400Z,729.38
2018-08-09T10:34:14.874Z,729.34
2018-08-09T10:35:15.340Z,729.43
2018-08-09T10:36:15.809Z,729.24
2018-08-09T10:37:16.278Z,729.34
2018-08-09T10:38:16.749Z,729.14
2018-08-09T10:39:17.218Z,729.21
2018-08-09T10:40:17.691Z,729.29
2018-08-09T10:41:18.160Z,729.24
2018-08-09T10:42:18.627Z,729.24
2018-08-09T10:43:19.097Z,729.36
2018-08-09T10:44:19.573Z,729.27
2018-08-09T10:45:20.036Z,729.35
2018-08-09T10:46:20.505Z,729.34
2018-08-09T10:47:20.976Z,729.30
2018-08-09T10:48:21.447Z,729.34
2018-08-09T10:49:21.915Z,729.30
2018-08-09T10:50:22.384Z,729.22
2018-08-09T10:51:22.854Z,729.24
2018-08-09T10:52:23.325Z,729.23
2018-08-09T10:53:23.797Z,729.31
2018-08-09T10:54:24.270Z,729.31
2018-08-09T10:55:24.740Z,729.24
2018-08-09T10:56:25.212Z,729.26
2018-08-09T10:57:25.687Z,729.28
2018-08-09T10:58:26.158Z,729.24
2018-08-09T10:59:26.630Z,729.27
2018-08-09T11:00:27.105Z,729.27
2018-08-09T11:01:27.580Z,729.36
2018-08-09T11:02:28.053Z,729.23
2018-08-09T11:03:28.527Z,729.27
2018-08-09T11:04:29.002Z,729.25
2018-08-09T11:05:29.478Z,729.24
2018-08-09T11:06:29.953Z,729.22
2018-08-09T11:07:30.429Z,729.23
2018-08-09T11:08:30.906Z,729.30
2018-08-09T11:09:31.382Z,729.33
2018-08-09T11:10:31.859Z,729.27
2018-08-09T11:11:32.334Z,729.29
2018-08-09T11:12:32.811Z,729.33
2018-08-09T11:13:33.288Z,729.45
2018-08-09T11:14:33.765Z,729.27
2018-08-09T11:15:34.242Z,729.34
2018-08-09T11:16:34.719Z,729.20
2018-08-09T11:17:35.194Z,729.32
2018-08-09T11:18:35.674Z,729.31
2018-08-09T11:19:36.204Z,729.38
2018-08-09T11:20:36.627Z,729.27
2018-08-09T11:21:37.107Z,729.30
2018-08-09T11:22:37.581Z,729.30
2018-08-09T11:23:38.097Z,729.35
2018-08-09T11:24:38.589Z,729.30
2018-08-09T11:25:39.012Z,729.33
2018-08-09T11:26:39.488Z,729.31
2018-08-09T11:27:39.966Z,729.36
2018-08-09T11:28:40.448Z,729.26
2018-08-09T11:29:40.920Z,729.32
2018-08-09T11:30:41.397Z,729.26
2018-08-09T11:31:41.874Z,729.27
2018-08-09T11:33:42.829Z,729.25
2018-08-09T11:34:43.305Z,729.34
2018-08-09T11:35:43.784Z,729.27
2018-08-09T11:36:44.258Z,729.20
2018-08-09T11:37:44.735Z,729.23
2018-08-09T11:38:45.210Z,729.16
2018-08-09T11:39:45.706Z,729.21
2018-08-09T11:40:46.170Z,729.28
2018-08-09T11:41:46.641Z,729.15
2018-08-09T11:42:47.117Z,729.20
2018-08-09T11:43:47.805Z,729.20
2018-08-09T11:44:48.070Z,729.23
2018-08-09T11:45:48.545Z,729.17
2018-08-09T11:46:49.021Z,729.27
2018-08-09T11:47:49.521Z,729.33
2018-08-09T11:48:50.017Z,729.25
2018-08-09T11:49:50.452Z,729.22
2018-08-09T11:50:50.926Z,729.29
2018-08-09T11:51:51.401Z,729.20
2018-08-09T11:52:51.881Z,729.25
2018-08-09T11:53:52.354Z,729.37
2018-08-09T11:54:52.831Z,729.25
2018-08-09T11:55:53.305Z,729.12
2018-08-09T11:56:53.793Z,729.22
2018-08-09T11:57:54.255Z,729.31
2018-08-09T11:58:54.732Z,729.25
2018-08-09T11:59:55.208Z,729.29
2018-08-09T12:00:55.682Z,729.26
2018-08-09T12:01:56.158Z,729.35
2018-08-09T12:02:56.634Z,729.24
2018-08-09T12:03:57.112Z,729.11
2018-08-09T12:04:57.591Z,729.31
2018-08-09T12:05:58.063Z,729.30
2018-08-09T12:06:58.571Z,729.36
2018-08-09T12:07:59.016Z,729.34
2018-08-09T12:08:59.495Z,729.35
2018-08-09T12:09:59.969Z,729.38
2018-08-09T12:11:00.441Z,729.33
2018-08-09T12:12:00.914Z,729.31
2018-08-09T12:13:01.389Z,729.36
2018-08-09T12:14:01.864Z,729.34
2018-08-09T12:15:02.348Z,729.17
2018-08-09T12:16:02.815Z,729.32
2018-08-09T12:17:03.294Z,729.22
2018-08-09T12:18:03.770Z,729.26
2018-08-09T12:19:04.242Z,729.31
2018-08-09T12:20:04.716Z,729.35
2018-08-09T12:21:05.193Z,729.34
2018-08-09T12:22:05.665Z,729.38
2018-08-09T12:23:06.142Z,729.39
2018-08-09T12:24:06.619Z,729.36
2018-08-09T12:25:07.090Z,729.42
2018-08-09T12:26:07.569Z,729.46
2018-08-09T12:27:08.044Z,729.38
2018-08-09T12:28:08.517Z,729.36
2018-08-09T12:29:08.992Z,729.36
2018-08-09T12:30:09.467Z,729.33
2018-08-09T12:31:09.948Z,729.22
2018-08-09T12:32:10.417Z,729.18
2018-08-09T12:33:10.900Z,729.21
2018-08-09T12:34:11.369Z,729.38
2018-08-09T12:35:11.843Z,729.35
2018-08-09T12:36:12.318Z,729.31
2018-08-09T12:37:12.795Z,729.39
2018-08-09T12:38:13.272Z,729.45
2018-08-09T12:39:13.744Z,729.40
2018-08-09T12:40:14.221Z,729.46
2018-08-09T12:41:14.694Z,729.42
2018-08-09T12:42:15.170Z,729.42
2018-08-09T12:43:15.645Z,729.41
2018-08-09T12:44:16.118Z,729.46
2018-08-09T12:45:16.637Z,729.46
2018-08-09T12:46:17.071Z,729.47
2018-08-09T12:47:17.554Z,729.47
2018-08-09T12:48:18.020Z,729.36
2018-08-09T12:49:18.499Z,729.44
2018-08-09T12:50:18.970Z,729.46
2018-08-09T12:51:19.445Z,729.47
2018-08-09T12:52:19.924Z,729.51
2018-08-09T12:53:20.397Z,729.48
2018-08-09T12:54:20.871Z,729.49
2018-08-09T12:55:21.347Z,729.48
2018-08-09T12:56:21.820Z,729.48
2018-08-09T12:57:22.294Z,729.46
2018-08-09T12:58:22.771Z,729.45
2018-08-09T12:59:23.247Z,729.44
2018-08-09T13:00:23.726Z,729.34
2018-08-09T13:01:24.194Z,729.47
2018-08-09T13:02:24.679Z,729.44
2018-08-09T13:03:25.149Z,729.38
2018-08-09T13:04:25.626Z,729.39
2018-08-09T13:05:26.099Z,729.43
2018-08-09T13:06:26.578Z,729.33
2018-08-09T13:07:27.049Z,729.32
2018-08-09T13:08:27.535Z,729.41
2018-08-09T13:09:28.000Z,729.42
2018-08-09T13:10:28.474Z,729.49
2018-08-09T13:11:28.952Z,729.42
2018-08-09T13:12:29.425Z,729.38
2018-08-09T13:13:29.898Z,729.48
2018-08-09T13:14:30.376Z,729.39
2018-08-09T13:15:30.850Z,729.48
2018-08-09T13:16:31.326Z,729.52
2018-08-09T13:17:31.803Z,729.51
2018-08-09T13:18:32.279Z,729.49
2018-08-09T13:19:32.753Z,729.51
2018-08-09T13:20:33.227Z,729.50
2018-08-09T13:21:33.703Z,729.51
2018-08-09T13:22:34.179Z,729.46
2018-08-09T13:23:34.657Z,729.41
2018-08-09T13:24:35.129Z,729.48
2018-08-09T13:25:35.605Z,729.50
2018-08-09T13:26:36.081Z,729.47
2018-08-09T13:27:36.757Z,729.50
2018-08-09T13:28:37.031Z,729.49
2018-08-09T13:29:37.505Z,729.44
2018-08-09T13:30:37.987Z,729.49
2018-08-09T13:31:38.458Z,729.53
2018-08-09T13:32:38.933Z,729.53
2018-08-09T13:33:39.425Z,729.58
2018-08-09T13:34:39.885Z,729.50
2018-08-09T13:35:40.367Z,729.49
2018-08-09T13:36:40.867Z,729.54
2018-08-09T13:37:41.311Z,729.48
2018-08-09T13:38:41.787Z,729.51
2018-08-09T13:39:42.263Z,729.48
2018-08-09T13:40:42.741Z,729.51
2018-08-09T13:41:43.219Z,729.46
2018-08-09T13:42:43.694Z,729.49
2018-08-09T13:43:44.166Z,729.49
2018-08-09T13:44:44.641Z,729.44
2018-08-09T13:45:45.119Z,729.41
2018-08-09T13:46:45.623Z,729.37
2018-08-09T13:47:46.069Z,729.39
2018-08-09T13:48:46.746Z,729.39
2018-08-09T13:49:47.021Z,729.32
2018-08-09T13:50:47.495Z,729.30
2018-08-09T13:52:48.472Z,729.28
2018-08-09T13:53:48.933Z,729.34
2018-08-09T13:54:49.608Z,729.24
2018-08-09T13:55:49.934Z,729.21
2018-08-09T13:56:50.351Z,729.18
2018-08-09T13:57:50.827Z,729.22
2018-08-09T13:58:51.304Z,729.23
2018-08-09T13:59:51.792Z,729.30
2018-08-09T14:00:52.256Z,729.20
2018-08-09T14:01:52.737Z,729.24
2018-08-09T14:02:53.211Z,729.13
2018-08-09T14:03:53.703Z,729.23
2018-08-09T14:04:54.161Z,729.22
2018-08-09T14:05:54.634Z,729.26
2018-08-09T14:06:55.113Z,729.26
2018-08-09T14:07:55.588Z,729.24
2018-08-09T14:08:56.064Z,729.26
2018-08-09T14:09:56.741Z,729.17
2018-08-09T14:10:57.017Z,729.21
2018-08-09T14:11:57.492Z,729.18
2018-08-09T14:12:57.968Z,729.24
2018-08-09T14:13:58.449Z,729.21
2018-08-09T14:14:58.920Z,729.27
2018-08-09T14:15:59.397Z,729.29
2018-08-09T14:16:59.874Z,729.29
2018-08-09T14:18:00.350Z,729.28
2018-08-09T14:19:00.826Z,729.27
2018-08-09T14:20:01.302Z,729.28
2018-08-09T14:21:01.778Z,729.26
2018-08-09T14:22:02.256Z,729.33
2018-08-09T14:23:02.730Z,729.33
2018-08-09T14:24:03.407Z,729.33
2018-08-09T14:25:03.702Z,729.37
2018-08-09T14:26:04.159Z,729.31
2018-08-09T14:27:04.637Z,729.30
2018-08-09T14:28:05.114Z,729.28
2018-08-09T14:29:05.588Z,729.28
2018-08-09T14:30:06.064Z,729.30
2018-08-09T14:31:06.594Z,729.34
2018-08-09T14:32:07.017Z,729.34
2018-08-09T14:33:07.496Z,729.27
2018-08-09T14:34:07.971Z,729.16
2018-08-09T14:35:08.447Z,729.18
2018-08-09T14:36:08.925Z,729.29
2018-08-09T14:37:09.399Z,729.30
2018-08-09T14:38:09.876Z,729.36
2018-08-09T14:39:10.355Z,729.31
2018-08-09T14:40:10.829Z,729.31
2018-08-09T14:41:11.305Z,729.35
2018-08-09T14:42:11.795Z,729.35
2018-08-09T14:43:12.259Z,729.33
2018-08-09T14:44:12.736Z,729.36
2018-08-09T14:45:13.212Z,729.30
2018-08-09T14:46:13.687Z,729.27
2018-08-09T14:47:14.165Z,729.33
2018-08-09T14:48:14.644Z,729.36
2018-08-09T14:49:15.117Z,729.28
2018-08-09T14:50:15.594Z,729.36
2018-08-09T14:51:16.071Z,729.38
2018-08-09T14:52:16.548Z,729.36
2018-08-09T14:53:17.025Z,729.36
2018-08-09T14:54:17.506Z,729.43
2018-08-09T14:55:17.979Z,729.46
2018-08-09T14:56:18.456Z,729.44
2018-08-09T14:57:18.933Z,729.44
2018-08-09T14:58:19.409Z,729.46
2018-08-09T14:59:19.885Z,729.41
2018-08-09T15:00:20.362Z,729.45
2018-08-09T15:01:20.838Z,729.43
2018-08-09T15:02:21.314Z,729.43
2018-08-09T15:03:21.792Z,729.45
2018-08-09T15:04:22.269Z,729.43
2018-08-09T15:05:22.747Z,729.39
2018-08-09T15:06:23.223Z,729.41
2018-08-09T15:07:23.705Z,729.35
2018-08-09T15:08:24.177Z,729.32
2018-08-09T15:09:24.653Z,729.33
2018-08-09T15:10:25.131Z,729.40
2018-08-09T15:11:25.631Z,729.37
2018-08-09T15:12:26.082Z,729.37
2018-08-09T15:13:26.561Z,729.38
2018-08-09T15:14:27.036Z,729.39
2018-08-09T15:15:27.550Z,729.41
2018-08-09T15:16:27.993Z,729.39
2018-08-09T15:17:28.470Z,729.42
2018-08-09T15:18:28.945Z,729.43
2018-08-09T15:19:29.423Z,729.41
2018-08-09T15:20:29.901Z,729.43
2018-08-09T15:21:30.376Z,729.48
2018-08-09T15:22:30.863Z,729.43
2018-08-09T15:23:31.331Z,729.43
2018-08-09T15:24:31.811Z,729.46
2018-08-09T15:25:32.284Z,729.47
2018-08-09T15:26:32.760Z,729.40
2018-08-09T15:27:33.238Z,729.48
2018-08-09T15:28:33.715Z,729.49
2018-08-09T15:29:34.190Z,729.47
2018-08-09T15:30:34.667Z,729.49
2018-08-09T15:31:35.146Z,729.53
2018-08-09T15:32:35.623Z,729.53
2018-08-09T15:33:36.099Z,729.54
2018-08-09T15:34:36.577Z,729.55
2018-08-09T15:35:37.057Z,729.53
2018-08-09T15:36:37.531Z,729.48
2018-08-09T15:37:38.013Z,729.54
2018-08-09T15:38:38.485Z,729.50
2018-08-09T15:39:38.961Z,729.44
2018-08-09T15:40:39.440Z,729.49
2018-08-09T15:41:39.916Z,729.47
2018-08-09T15:42:40.416Z,729.52
2018-08-09T15:43:40.871Z,729.51
2018-08-09T15:44:41.349Z,729.57
2018-08-09T15:45:41.824Z,729.55
2018-08-09T15:46:42.302Z,729.55
2018-08-09T15:47:42.818Z,729.58
2018-08-09T15:48:43.257Z,729.60
2018-08-09T15:49:43.732Z,729.52
2018-08-09T15:50:44.211Z,729.55
2018-08-09T15:51:44.687Z,729.53
2018-08-09T15:52:45.165Z,729.52
2018-08-09T15:53:45.643Z,729.54
2018-08-09T15:54:46.131Z,729.55
2018-08-09T15:55:46.599Z,729.46
2018-08-09T15:56:47.092Z,729.56
2018-08-09T15:57:47.560Z,729.54
2018-08-09T15:58:48.037Z,729.52
2018-08-09T15:59:48.506Z,729.53
2018-08-09T16:00:48.985Z,729.55
2018-08-09T16:01:49.460Z,729.58
2018-08-09T16:02:49.947Z,729.57
2018-08-09T16:03:50.418Z,729.59
2018-08-09T16:04:50.892Z,729.62
2018-08-09T16:05:51.371Z,729.59
2018-08-09T16:06:51.845Z,729.59
2018-08-09T16:07:52.323Z,729.59
2018-08-09T16:08:52.805Z,729.63
2018-08-09T16:09:53.279Z,729.62
2018-08-09T16:10:53.754Z,729.65
2018-08-09T16:11:54.236Z,729.67
2018-08-09T16:12:54.711Z,729.57
2018-08-09T16:13:55.189Z,729.62
2018-08-09T16:14:55.666Z,729.61
2018-08-09T16:15:56.142Z,729.61
2018-08-09T16:16:56.620Z,729.55
2018-08-09T16:17:57.097Z,729.60
2018-08-09T16:18:57.577Z,729.57
2018-08-09T16:19:58.053Z,729.54
2018-08-09T16:20:58.531Z,729.58
2018-08-09T16:21:59.004Z,729.51
2018-08-09T16:22:59.531Z,729.54
2018-08-09T16:23:59.963Z,729.59
2018-08-09T16:25:00.438Z,729.62
2018-08-09T16:26:00.918Z,729.66
2018-08-09T16:27:01.393Z,729.60
2018-08-09T16:28:01.872Z,729.63
2018-08-09T16:29:02.354Z,729.65
2018-08-09T16:30:02.850Z,729.60
2018-08-09T16:31:03.303Z,729.63
2018-08-09T16:32:03.780Z,729.65
2018-08-09T16:33:04.257Z,729.67
2018-08-09T16:34:04.732Z,729.64
2018-08-09T16:35:05.213Z,729.61
2018-08-09T16:36:05.691Z,729.59
2018-08-09T16:37:06.168Z,729.59
2018-08-09T16:38:06.643Z,729.56
2018-08-09T16:39:07.121Z,729.62
2018-08-09T16:40:07.601Z,729.60
2018-08-09T16:41:08.078Z,729.58
2018-08-09T16:42:08.554Z,729.59
2018-08-09T16:43:09.029Z,729.56
2018-08-09T16:44:09.506Z,729.53
2018-08-09T16:45:09.987Z,729.56
2018-08-09T16:46:10.462Z,729.59
2018-08-09T16:47:10.940Z,729.53
2018-08-09T16:48:11.419Z,729.57
2018-08-09T16:49:11.895Z,729.58
2018-08-09T16:50:12.371Z,729.64
2018-08-09T16:51:12.849Z,729.58
2018-08-09T16:52:13.326Z,729.60
2018-08-09T16:53:13.804Z,729.56
2018-08-09T16:54:14.280Z,729.60
2018-08-09T16:55:14.762Z,729.53
2018-08-09T16:56:15.236Z,729.54
2018-08-09T16:57:15.713Z,729.50
2018-08-09T16:58:16.196Z,729.45
2018-08-09T16:59:16.666Z,729.49
2018-08-09T17:00:17.144Z,729.51
2018-08-09T17:01:17.622Z,729.52
2018-08-09T17:02:18.098Z,729.44
2018-08-09T17:03:18.646Z,729.44
2018-08-09T17:04:19.053Z,729.45
2018-08-09T17:05:19.531Z,729.42
2018-08-09T17:06:20.005Z,729.45
2018-08-09T17:07:20.485Z,729.42
2018-08-09T17:08:20.961Z,729.39
2018-08-09T17:09:21.438Z,729.41
2018-08-09T17:10:21.919Z,729.38
2018-08-09T17:11:22.394Z,729.38
2018-08-09T17:12:22.870Z,729.39
2018-08-09T17:13:23.351Z,729.34
2018-08-09T17:14:23.826Z,729.35
2018-08-09T17:15:24.335Z,729.35
2018-08-09T17:16:24.779Z,729.26
2018-08-09T17:17:25.256Z,729.27
2018-08-09T17:18:25.732Z,729.16
2018-08-09T17:19:26.212Z,729.13
2018-08-09T17:20:26.687Z,729.08
2018-08-09T17:21:27.166Z,729.19
2018-08-09T17:22:27.644Z,729.23
2018-08-09T17:23:28.320Z,729.25
2018-08-09T17:24:28.598Z,729.03
2018-08-09T17:25:29.086Z,729.15
2018-08-09T17:26:29.549Z,729.24
2018-08-09T17:27:30.027Z,729.27
2018-08-09T17:28:30.501Z,729.24
2018-08-09T17:29:31.030Z,729.23
2018-08-09T17:30:31.456Z,729.29
2018-08-09T17:31:31.932Z,729.30
2018-08-09T17:32:32.415Z,729.25
2018-08-09T17:33:32.888Z,729.30
2018-08-09T17:34:33.365Z,729.30
2018-08-09T17:35:33.841Z,729.28
2018-08-09T17:36:34.320Z,729.30
2018-08-09T17:37:34.797Z,729.28
2018-08-09T17:38:35.272Z,729.32
2018-08-09T17:39:35.748Z,729.30
2018-08-09T17:40:36.227Z,729.37
2018-08-09T17:41:36.707Z,729.42
2018-08-09T17:42:37.181Z,729.43
2018-08-09T17:43:37.658Z,729.41
2018-08-09T17:44:38.135Z,729.45
2018-08-09T17:45:38.611Z,729.31
2018-08-09T17:46:39.087Z,729.34
2018-08-09T17:47:39.563Z,729.35
2018-08-09T17:48:40.040Z,729.36
2018-08-09T17:49:40.518Z,729.38
2018-08-09T17:50:40.995Z,729.42
2018-08-09T17:51:41.471Z,729.36
2018-08-09T17:52:41.947Z,729.35
2018-08-09T17:53:42.423Z,729.36
2018-08-09T17:54:42.899Z,729.29
2018-08-09T17:55:43.378Z,729.42
2018-08-09T17:56:43.854Z,729.40
2018-08-09T17:57:44.332Z,729.37
2018-08-09T17:58:44.808Z,729.41
2018-08-09T17:59:45.287Z,729.40
2018-08-09T18:00:45.772Z,729.43
2018-08-09T18:01:46.245Z,729.38
2018-08-09T18:02:46.713Z,729.39
2018-08-09T18:03:47.189Z,729.41
2018-08-09T18:04:47.677Z,729.40
2018-08-09T18:05:48.143Z,729.42
2018-08-09T18:06:48.618Z,729.42
2018-08-09T18:07:49.095Z,729.41
2018-08-09T18:08:49.575Z,729.36
2018-08-09T18:09:50.048Z,729.37
2018-08-09T18:10:50.524Z,729.32
2018-08-09T18:11:50.998Z,729.35
2018-08-09T18:12:51.477Z,729.34
2018-08-09T18:13:51.956Z,729.36
2018-08-09T18:14:52.429Z,729.32
2018-08-09T18:15:52.905Z,729.34
2018-08-09T18:16:53.383Z,729.31
2018-08-09T18:17:53.892Z,729.33
2018-08-09T18:18:54.333Z,729.34
2018-08-09T18:19:54.814Z,729.34
2018-08-09T18:20:55.284Z,729.31
2018-08-09T18:21:55.763Z,729.34
2018-08-09T18:22:56.238Z,729.32
2018-08-09T18:23:56.715Z,729.26
2018-08-09T18:24:57.189Z,729.32
2018-08-09T18:25:57.669Z,729.28
2018-08-09T18:26:58.141Z,729.29
2018-08-09T18:27:58.617Z,729.30
2018-08-09T18:28:59.095Z,729.29
2018-08-09T18:29:59.569Z,729.22
2018-08-09T18:31:00.073Z,729.25
2018-08-09T18:32:00.520Z,729.18
2018-08-09T18:33:00.997Z,729.14
2018-08-09T18:34:01.473Z,729.11
2018-08-09T18:35:01.948Z,729.13
2018-08-09T18:36:02.423Z,729.15
2018-08-09T18:37:02.898Z,729.20
2018-08-09T18:38:03.376Z,729.21
2018-08-09T18:39:03.849Z,729.23
2018-08-09T18:40:04.326Z,729.20
2018-08-09T18:41:04.803Z,729.21
2018-08-09T18:42:05.277Z,729.23
2018-08-09T18:43:05.777Z,729.22
2018-08-09T18:44:06.227Z,729.24
2018-08-09T18:45:06.705Z,729.22
2018-08-09T18:46:07.182Z,729.26
2018-08-09T18:47:07.657Z,729.19
2018-08-09T18:48:08.129Z,729.21
2018-08-09T18:49:08.605Z,729.24
2018-08-09T18:50:09.085Z,729.24
2018-08-09T18:51:09.557Z,729.21
2018-08-09T18:52:10.032Z,729.12
2018-08-09T18:53:10.511Z,729.12
2018-08-09T18:54:10.984Z,729.10
2018-08-09T18:55:11.457Z,729.10
2018-08-09T18:56:11.934Z,729.07
2018-08-09T18:57:12.409Z,729.15
2018-08-09T18:58:12.884Z,729.13
2018-08-09T18:59:13.396Z,729.13
2018-08-09T19:00:13.836Z,729.15
2018-08-09T19:01:14.308Z,729.18
2018-08-09T19:02:14.786Z,729.20
2018-08-09T19:03:15.258Z,729.22
2018-08-09T19:04:15.734Z,729.24
2018-08-09T19:05:16.211Z,729.27
2018-08-09T19:06:16.684Z,729.29
2018-08-09T19:07:17.157Z,729.26
2018-08-09T19:08:17.634Z,729.28
2018-08-09T19:09:18.159Z,729.27
2018-08-09T19:10:18.585Z,729.33
2018-08-09T19:11:19.057Z,729.38
2018-08-09T19:12:19.535Z,729.30
2018-08-09T19:13:20.009Z,729.23
2018-08-09T19:14:20.484Z,729.31
2018-08-09T19:15:20.958Z,729.32
2018-08-09T19:16:21.434Z,729.35
2018-08-09T19:17:21.906Z,729.39
2018-08-09T19:18:22.383Z,729.39
2018-08-09T19:19:22.857Z,729.38
2018-08-09T19:20:23.333Z,729.36
2018-08-09T19:21:23.806Z,729.34
2018-08-09T19:22:24.280Z,729.41
2018-08-09T19:23:24.755Z,729.41
2018-08-09T19:24:25.253Z,729.40
2018-08-09T19:25:25.704Z,729.40
2018-08-09T19:26:26.180Z,729.46
2018-08-09T19:27:26.675Z,729.51
2018-08-09T19:28:27.128Z,729.46
2018-08-09T19:29:27.603Z,729.48
2018-08-09T19:30:28.079Z,729.50
2018-08-09T19:31:28.550Z,729.48
2018-08-09T19:32:29.022Z,729.43
2018-08-09T19:33:29.503Z,729.46
2018-08-09T19:34:29.974Z,729.48
2018-08-09T19:35:30.448Z,729.53
2018-08-09T19:36:30.922Z,729.58
2018-08-09T19:37:31.398Z,729.54
2018-08-09T19:38:31.871Z,729.56
2018-08-09T19:39:32.343Z,729.56
2018-08-09T19:40:32.817Z,729.62
2018-08-09T19:41:33.293Z,729.64
2018-08-09T19:42:33.767Z,729.61
2018-08-09T19:43:34.239Z,729.60
2018-08-09T19:44:34.717Z,729.58
2018-08-09T19:45:35.188Z,729.68
2018-08-09T19:46:35.662Z,729.58
2018-08-09T19:47:36.135Z,729.58
2018-08-09T19:48:36.641Z,729.64
2018-08-09T19:49:37.085Z,729.68
2018-08-09T19:50:37.560Z,729.65
2018-08-09T19:51:38.037Z,729.65
2018-08-09T19:52:38.505Z,729.71
2018-08-09T19:53:38.979Z,729.73
2018-08-09T19:54:39.451Z,729.73
2018-08-09T19:55:39.926Z,729.71
2018-08-09T19:56:40.401Z,729.69
2018-08-09T19:57:40.873Z,729.71
2018-08-09T19:58:41.345Z,729.69
2018-08-09T19:59:41.819Z,729.71
2018-08-09T20:00:42.294Z,729.63
2018-08-09T20:01:42.768Z,729.70
2018-08-09T20:02:43.240Z,729.69
2018-08-09T20:03:43.714Z,729.72
2018-08-09T20:04:44.187Z,729.70
2018-08-09T20:05:44.665Z,729.68
2018-08-09T20:06:45.172Z,729.72
2018-08-09T20:07:45.609Z,729.71
2018-08-09T20:08:46.081Z,729.79
2018-08-09T20:09:46.557Z,729.77
2018-08-09T20:10:47.031Z,729.74
2018-08-09T20:11:47.500Z,729.84
2018-08-09T20:12:47.989Z,729.79
2018-08-09T20:13:48.448Z,729.78
2018-08-09T20:14:48.923Z,729.82
2018-08-09T20:15:49.394Z,729.83
2018-08-09T20:16:49.869Z,729.82
2018-08-09T20:17:50.543Z,729.83
2018-08-09T20:18:50.814Z,729.80
2018-08-09T20:19:51.286Z,729.90
2018-08-09T20:20:51.761Z,729.79
2018-08-09T20:21:52.232Z,729.72
2018-08-09T20:22:52.734Z,729.78
2018-08-09T20:23:53.179Z,729.76
2018-08-09T20:24:53.651Z,729.85
2018-08-09T20:25:54.123Z,729.85
2018-08-09T20:26:54.597Z,729.83
2018-08-09T20:27:55.072Z,729.89
2018-08-09T20:28:55.543Z,729.91
2018-08-09T20:29:56.017Z,729.87
2018-08-09T20:30:56.490Z,729.88
2018-08-09T20:31:56.962Z,729.90
2018-08-09T20:32:57.475Z,729.84
2018-08-09T20:33:57.926Z,729.91
2018-08-09T20:34:58.383Z,729.87
2018-08-09T20:35:58.852Z,729.95
2018-08-09T20:36:59.325Z,729.92
2018-08-09T20:37:59.796Z,729.94
2018-08-09T20:39:00.269Z,729.96
2018-08-09T20:40:00.742Z,729.97
2018-08-09T20:41:01.215Z,729.94
2018-08-09T20:42:01.687Z,729.93
2018-08-09T20:43:02.162Z,729.88
2018-08-09T20:44:02.642Z,729.86
2018-08-09T20:45:03.106Z,729.88
2018-08-09T20:46:03.577Z,729.78
2018-08-09T20:47:04.050Z,729.79
2018-08-09T20:48:04.547Z,729.76
2018-08-09T20:49:04.996Z,729.76
2018-08-09T20:51:05.942Z,729.80
2018-08-09T20:52:06.412Z,729.76
2018-08-09T20:53:06.885Z,729.78
2018-08-09T20:54:07.357Z,729.72
2018-08-09T20:55:07.829Z,729.69
2018-08-09T20:56:08.301Z,729.67
2018-08-09T20:57:08.772Z,729.69
2018-08-09T20:58:09.245Z,729.67
2018-08-09T20:59:09.716Z,729.69
2018-08-09T21:00:10.189Z,729.71
2018-08-09T21:01:10.661Z,729.66
2018-08-09T21:02:11.146Z,729.61
2018-08-09T21:03:11.608Z,729.62
2018-08-09T21:04:12.079Z,729.62
2018-08-09T21:05:12.549Z,729.63
2018-08-09T21:06:13.023Z,729.61
2018-08-09T21:07:13.493Z,729.66
2018-08-09T21:08:13.983Z,729.65
2018-08-09T21:09:14.438Z,729.65
2018-08-09T21:10:14.911Z,729.69
2018-08-09T21:11:15.383Z,729.65
2018-08-09T21:12:15.853Z,729.69
2018-08-09T21:13:16.334Z,729.63
2018-08-09T21:14:16.796Z,729.66
2018-08-09T21:15:17.306Z,729.67
2018-08-09T21:16:17.740Z,729.71
2018-08-09T21:17:18.213Z,729.69
2018-08-09T21:18:18.685Z,729.62
2018-08-09T21:19:19.157Z,729.69
2018-08-09T21:20:19.628Z,729.64
2018-08-09T21:21:20.100Z,729.68
2018-08-09T21:22:20.571Z,729.74
2018-08-09T21:23:21.075Z,729.69
2018-08-09T21:24:21.515Z,729.64
2018-08-09T21:25:21.986Z,729.61
2018-08-09T21:26:22.458Z,729.69
2018-08-09T21:27:22.930Z,729.60
2018-08-09T21:28:23.400Z,729.61
2018-08-09T21:29:23.872Z,729.58
2018-08-09T21:30:24.344Z,729.55
2018-08-09T21:31:24.815Z,729.66
2018-08-09T21:32:25.329Z,729.63
2018-08-09T21:33:25.758Z,729.64
2018-08-09T21:34:26.229Z,729.65
2018-08-09T21:35:26.699Z,729.64
2018-08-09T21:36:27.171Z,729.66
2018-08-09T21:37:27.646Z,729.63
2018-08-09T21:38:28.114Z,729.68
2018-08-09T21:39:28.585Z,729.67
2018-08-09T21:40:29.059Z,729.64
2018-08-09T21:41:29.527Z,729.69
2018-08-09T21:42:29.999Z,729.69
2018-08-09T21:43:30.471Z,729.71
2018-08-09T21:44:30.940Z,729.69
2018-08-09T21:45:31.412Z,729.71
2018-08-09T21:46:31.883Z,729.68
2018-08-09T21:47:32.356Z,729.73
2018-08-09T21:48:32.830Z,729.71
2018-08-09T21:49:33.300Z,729.69
2018-08-09T21:50:33.773Z,729.71
2018-08-09T21:51:34.243Z,729.65
2018-08-09T21:52:34.714Z,729.74
2018-08-09T21:53:35.188Z,729.76
2018-08-09T21:54:35.661Z,729.74
2018-08-09T21:55:36.132Z,729.74
2018-08-09T21:56:36.606Z,729.77
2018-08-09T21:57:37.081Z,729.72
2018-08-09T21:58:37.557Z,729.72
2018-08-09T21:59:38.032Z,729.67
2018-08-09T22:00:38.501Z,729.71
2018-08-09T22:01:38.976Z,729.69
2018-08-09T22:02:39.450Z,729.67
2018-08-09T22:03:39.926Z,729.75
2018-08-09T22:04:40.398Z,729.78
2018-08-09T22:05:40.873Z,729.76
2018-08-09T22:06:41.350Z,729.79
2018-08-09T22:07:41.824Z,729.77
2018-08-09T22:08:42.299Z,729.84
2018-08-09T22:09:42.775Z,729.78
2018-08-09T22:10:43.249Z,729.78
2018-08-09T22:11:43.729Z,729.77
2018-08-09T22:12:44.200Z,729.78
2018-08-09T22:13:44.677Z,729.82
2018-08-09T22:14:45.152Z,729.78
2018-08-09T22:15:45.628Z,729.83
2018-08-09T22:16:46.102Z,729.72
2018-08-09T22:17:46.580Z,729.73
2018-08-09T22:18:47.056Z,729.80
2018-08-09T22:19:47.535Z,729.79
2018-08-09T22:21:48.484Z,729.78